sensor_id;sensor_type;location;lat;lon;timestamp;temperature;humidity
8332;DHT22;4203;48.144;14.118;2023-03-13T00:01:56;1.70;99.90
8332;DHT22;4203;48.144;14.118;2023-03-13T00:04:23;1.80;99.90
8332;DHT22;4203;48.144;14.118;2023-03-13T00:06:50;1.70;99.90
8332;DHT22;4203;48.144;14.118;2023-03-13T00:09:18;1.70;99.90
8332;DHT22;4203;48.144;14.118;2023-03-13T00:11:56;1.80;99.90
8332;DHT22;4203;48.144;14.118;2023-03-13T00:14:23;1.80;99.90
8332;DHT22;4203;48.144;14.118;2023-03-13T00:16:50;1.80;99.90
8332;DHT22;4203;48.144;14.118;2023-03-13T00:19:17;1.70;99.90
8332;DHT22;4203;48.144;14.118;2023-03-13T00:21:44;1.70;99.90
8332;DHT22;4203;48.144;14.118;2023-03-13T00:24:12;1.70;99.90
8332;DHT22;4203;48.144;14.118;2023-03-13T00:26:39;1.70;99.90
8332;DHT22;4203;48.144;14.118;2023-03-13T00:29:08;1.70;99.90
8332;DHT22;4203;48.144;14.118;2023-03-13T00:31:36;1.70;99.90
8332;DHT22;4203;48.144;14.118;2023-03-13T00:34:04;1.70;99.90
8332;DHT22;4203;48.144;14.118;2023-03-13T00:36:33;1.70;99.90
8332;DHT22;4203;48.144;14.118;2023-03-13T00:39:01;1.60;99.90
8332;DHT22;4203;48.144;14.118;2023-03-13T00:41:30;1.60;99.90
8332;DHT22;4203;48.144;14.118;2023-03-13T00:43:58;1.60;99.90
8332;DHT22;4203;48.144;14.118;2023-03-13T00:46:27;1.50;99.90
8332;DHT22;4203;48.144;14.118;2023-03-13T00:48:55;1.60;99.90
8332;DHT22;4203;48.144;14.118;2023-03-13T00:51:25;1.70;99.90
8332;DHT22;4203;48.144;14.118;2023-03-13T00:53:53;1.60;99.90
8332;DHT22;4203;48.144;14.118;2023-03-13T00:56:20;1.60;99.90
8332;DHT22;4203;48.144;14.118;2023-03-13T00:58:49;1.60;99.90
8332;DHT22;4203;48.144;14.118;2023-03-13T01:01:18;1.60;99.90
8332;DHT22;4203;48.144;14.118;2023-03-13T01:03:49;1.60;99.90
8332;DHT22;4203;48.144;14.118;2023-03-13T01:06:19;1.50;99.90
8332;DHT22;4203;48.144;14.118;2023-03-13T01:08:47;1.60;99.90
8332;DHT22;4203;48.144;14.118;2023-03-13T01:11:16;1.60;99.90
8332;DHT22;4203;48.144;14.118;2023-03-13T01:13:44;1.50;99.90
8332;DHT22;4203;48.144;14.118;2023-03-13T01:16:13;1.40;99.90
8332;DHT22;4203;48.144;14.118;2023-03-13T01:18:43;1.40;99.90
8332;DHT22;4203;48.144;14.118;2023-03-13T01:21:12;1.30;99.90
8332;DHT22;4203;48.144;14.118;2023-03-13T01:23:39;1.20;99.90
8332;DHT22;4203;48.144;14.118;2023-03-13T01:26:07;1.20;99.90
8332;DHT22;4203;48.144;14.118;2023-03-13T01:28:35;1.20;99.90
8332;DHT22;4203;48.144;14.118;2023-03-13T01:31:10;1.10;99.90
8332;DHT22;4203;48.144;14.118;2023-03-13T01:33:37;1.20;99.90
8332;DHT22;4203;48.144;14.118;2023-03-13T01:36:05;1.20;99.90
8332;DHT22;4203;48.144;14.118;2023-03-13T01:38:34;1.20;99.90
8332;DHT22;4203;48.144;14.118;2023-03-13T01:41:03;1.30;99.90
8332;DHT22;4203;48.144;14.118;2023-03-13T01:43:33;1.20;99.90
8332;DHT22;4203;48.144;14.118;2023-03-13T01:46:04;1.20;99.90
8332;DHT22;4203;48.144;14.118;2023-03-13T01:48:38;1.10;99.90
8332;DHT22;4203;48.144;14.118;2023-03-13T01:51:09;1.00;99.90
8332;DHT22;4203;48.144;14.118;2023-03-13T01:53:41;1.00;99.90
8332;DHT22;4203;48.144;14.118;2023-03-13T01:56:14;0.90;99.90
8332;DHT22;4203;48.144;14.118;2023-03-13T01:58:43;0.80;99.90
8332;DHT22;4203;48.144;14.118;2023-03-13T02:01:10;0.80;99.90
8332;DHT22;4203;48.144;14.118;2023-03-13T02:03:38;0.80;99.90
8332;DHT22;4203;48.144;14.118;2023-03-13T02:06:06;0.70;99.90
8332;DHT22;4203;48.144;14.118;2023-03-13T02:08:39;0.60;99.90
8332;DHT22;4203;48.144;14.118;2023-03-13T02:11:15;0.60;99.90
8332;DHT22;4203;48.144;14.118;2023-03-13T02:13:45;0.60;99.90
8332;DHT22;4203;48.144;14.118;2023-03-13T02:16:13;0.60;99.90
8332;DHT22;4203;48.144;14.118;2023-03-13T02:18:40;0.40;99.90
8332;DHT22;4203;48.144;14.118;2023-03-13T02:21:13;0.40;99.90
8332;DHT22;4203;48.144;14.118;2023-03-13T02:23:52;0.40;99.90
8332;DHT22;4203;48.144;14.118;2023-03-13T02:26:21;0.40;99.90
8332;DHT22;4203;48.144;14.118;2023-03-13T02:28:49;0.40;99.90
8332;DHT22;4203;48.144;14.118;2023-03-13T02:31:17;0.20;99.90
8332;DHT22;4203;48.144;14.118;2023-03-13T02:33:44;0.10;99.90
8332;DHT22;4203;48.144;14.118;2023-03-13T02:36:13;0.20;99.90
8332;DHT22;4203;48.144;14.118;2023-03-13T02:38:44;0.20;99.90
8332;DHT22;4203;48.144;14.118;2023-03-13T02:41:14;0.20;99.90
8332;DHT22;4203;48.144;14.118;2023-03-13T02:43:43;0.20;99.90
8332;DHT22;4203;48.144;14.118;2023-03-13T02:46:13;0.30;99.90
8332;DHT22;4203;48.144;14.118;2023-03-13T02:48:41;0.20;99.90
8332;DHT22;4203;48.144;14.118;2023-03-13T02:51:15;0.10;99.90
8332;DHT22;4203;48.144;14.118;2023-03-13T02:53:43;0.20;99.90
8332;DHT22;4203;48.144;14.118;2023-03-13T02:56:11;0.10;99.90
8332;DHT22;4203;48.144;14.118;2023-03-13T02:58:40;0.10;99.90
8332;DHT22;4203;48.144;14.118;2023-03-13T03:01:09;0.10;99.90
8332;DHT22;4203;48.144;14.118;2023-03-13T03:03:36;0.10;99.90
8332;DHT22;4203;48.144;14.118;2023-03-13T03:06:05;0.20;99.90
8332;DHT22;4203;48.144;14.118;2023-03-13T03:08:32;0.10;99.90
8332;DHT22;4203;48.144;14.118;2023-03-13T03:11:00;0.10;99.90
8332;DHT22;4203;48.144;14.118;2023-03-13T03:13:28;0.00;99.90
8332;DHT22;4203;48.144;14.118;2023-03-13T03:15:55;0.00;99.90
8332;DHT22;4203;48.144;14.118;2023-03-13T03:18:23;-0.10;99.90
8332;DHT22;4203;48.144;14.118;2023-03-13T03:20:50;-0.10;99.90
8332;DHT22;4203;48.144;14.118;2023-03-13T03:23:18;-0.10;99.90
8332;DHT22;4203;48.144;14.118;2023-03-13T03:25:45;0.00;99.90
8332;DHT22;4203;48.144;14.118;2023-03-13T03:28:12;0.00;99.90
8332;DHT22;4203;48.144;14.118;2023-03-13T03:30:39;0.00;99.90
8332;DHT22;4203;48.144;14.118;2023-03-13T03:33:06;0.00;99.90
8332;DHT22;4203;48.144;14.118;2023-03-13T03:35:35;-0.10;99.90
8332;DHT22;4203;48.144;14.118;2023-03-13T03:38:03;-0.10;99.90
8332;DHT22;4203;48.144;14.118;2023-03-13T03:40:31;-0.20;99.90
8332;DHT22;4203;48.144;14.118;2023-03-13T03:42:58;-0.20;99.90
8332;DHT22;4203;48.144;14.118;2023-03-13T03:45:25;-0.10;99.90
8332;DHT22;4203;48.144;14.118;2023-03-13T03:47:52;-0.10;99.90
8332;DHT22;4203;48.144;14.118;2023-03-13T03:50:19;-0.10;99.90
8332;DHT22;4203;48.144;14.118;2023-03-13T03:52:48;-0.20;99.90
8332;DHT22;4203;48.144;14.118;2023-03-13T03:55:16;-0.20;99.90
8332;DHT22;4203;48.144;14.118;2023-03-13T03:57:43;-0.20;99.90
8332;DHT22;4203;48.144;14.118;2023-03-13T04:00:11;-0.20;99.90
8332;DHT22;4203;48.144;14.118;2023-03-13T04:02:41;-0.10;99.90
8332;DHT22;4203;48.144;14.118;2023-03-13T04:05:08;-0.20;99.90
8332;DHT22;4203;48.144;14.118;2023-03-13T04:07:35;-0.20;99.90
8332;DHT22;4203;48.144;14.118;2023-03-13T04:10:04;-0.20;99.90
8332;DHT22;4203;48.144;14.118;2023-03-13T04:12:32;-0.20;99.90
8332;DHT22;4203;48.144;14.118;2023-03-13T04:14:59;-0.30;99.90
8332;DHT22;4203;48.144;14.118;2023-03-13T04:17:26;-0.30;99.90
8332;DHT22;4203;48.144;14.118;2023-03-13T04:19:53;-0.30;99.90
8332;DHT22;4203;48.144;14.118;2023-03-13T04:22:20;-0.30;99.90
8332;DHT22;4203;48.144;14.118;2023-03-13T04:24:47;-0.30;99.90
8332;DHT22;4203;48.144;14.118;2023-03-13T04:27:16;-0.30;99.90
8332;DHT22;4203;48.144;14.118;2023-03-13T04:29:43;-0.30;99.90
8332;DHT22;4203;48.144;14.118;2023-03-13T04:32:10;-0.30;99.90
8332;DHT22;4203;48.144;14.118;2023-03-13T04:34:37;-0.30;99.90
8332;DHT22;4203;48.144;14.118;2023-03-13T04:37:05;-0.40;99.90
8332;DHT22;4203;48.144;14.118;2023-03-13T04:39:32;-0.40;99.90
8332;DHT22;4203;48.144;14.118;2023-03-13T04:41:59;-0.40;99.90
8332;DHT22;4203;48.144;14.118;2023-03-13T04:44:27;-0.40;99.90
8332;DHT22;4203;48.144;14.118;2023-03-13T04:46:55;-0.40;99.90
8332;DHT22;4203;48.144;14.118;2023-03-13T04:49:22;-0.40;99.90
8332;DHT22;4203;48.144;14.118;2023-03-13T04:51:49;-0.50;99.90
8332;DHT22;4203;48.144;14.118;2023-03-13T04:54:16;-0.50;99.90
8332;DHT22;4203;48.144;14.118;2023-03-13T04:56:43;-0.40;99.90
8332;DHT22;4203;48.144;14.118;2023-03-13T04:59:11;-0.40;99.90
8332;DHT22;4203;48.144;14.118;2023-03-13T05:01:40;-0.30;99.90
8332;DHT22;4203;48.144;14.118;2023-03-13T05:04:09;-0.30;99.90
8332;DHT22;4203;48.144;14.118;2023-03-13T05:06:37;-0.30;99.90
8332;DHT22;4203;48.144;14.118;2023-03-13T05:09:05;-0.30;99.90
8332;DHT22;4203;48.144;14.118;2023-03-13T05:11:32;-0.30;99.90
8332;DHT22;4203;48.144;14.118;2023-03-13T05:14:00;-0.30;99.90
8332;DHT22;4203;48.144;14.118;2023-03-13T05:16:27;-0.30;99.90
8332;DHT22;4203;48.144;14.118;2023-03-13T05:18:55;-0.30;99.90
8332;DHT22;4203;48.144;14.118;2023-03-13T05:21:22;-0.30;99.90
8332;DHT22;4203;48.144;14.118;2023-03-13T05:23:49;-0.20;99.90
8332;DHT22;4203;48.144;14.118;2023-03-13T05:26:16;-0.10;99.90
8332;DHT22;4203;48.144;14.118;2023-03-13T05:28:44;0.10;99.90
8332;DHT22;4203;48.144;14.118;2023-03-13T05:31:11;0.10;99.90
8332;DHT22;4203;48.144;14.118;2023-03-13T05:33:38;0.20;99.90
8332;DHT22;4203;48.144;14.118;2023-03-13T05:36:07;0.20;99.90
8332;DHT22;4203;48.144;14.118;2023-03-13T05:38:34;0.20;99.90
8332;DHT22;4203;48.144;14.118;2023-03-13T05:41:01;0.20;99.90
8332;DHT22;4203;48.144;14.118;2023-03-13T05:43:29;0.20;99.90
8332;DHT22;4203;48.144;14.118;2023-03-13T05:45:56;0.30;99.90
8332;DHT22;4203;48.144;14.118;2023-03-13T05:48:23;0.40;99.90
8332;DHT22;4203;48.144;14.118;2023-03-13T05:50:50;0.40;99.90
8332;DHT22;4203;48.144;14.118;2023-03-13T05:53:18;0.40;99.90
8332;DHT22;4203;48.144;14.118;2023-03-13T05:55:46;0.40;99.90
8332;DHT22;4203;48.144;14.118;2023-03-13T05:58:13;0.50;99.90
8332;DHT22;4203;48.144;14.118;2023-03-13T06:00:40;0.50;99.90
8332;DHT22;4203;48.144;14.118;2023-03-13T06:03:08;0.50;99.90
8332;DHT22;4203;48.144;14.118;2023-03-13T06:05:35;0.50;99.90
8332;DHT22;4203;48.144;14.118;2023-03-13T06:08:02;0.60;99.90
8332;DHT22;4203;48.144;14.118;2023-03-13T06:10:31;0.60;99.90
8332;DHT22;4203;48.144;14.118;2023-03-13T06:12:58;0.60;99.90
8332;DHT22;4203;48.144;14.118;2023-03-13T06:15:25;0.70;99.90
8332;DHT22;4203;48.144;14.118;2023-03-13T06:17:52;0.70;99.90
8332;DHT22;4203;48.144;14.118;2023-03-13T06:20:19;0.80;99.90
8332;DHT22;4203;48.144;14.118;2023-03-13T06:22:47;0.80;99.90
8332;DHT22;4203;48.144;14.118;2023-03-13T06:25:14;0.90;99.90
8332;DHT22;4203;48.144;14.118;2023-03-13T06:27:43;1.00;99.90
8332;DHT22;4203;48.144;14.118;2023-03-13T06:30:11;1.10;99.90
8332;DHT22;4203;48.144;14.118;2023-03-13T06:32:38;1.20;99.90
8332;DHT22;4203;48.144;14.118;2023-03-13T06:35:06;1.30;99.90
8332;DHT22;4203;48.144;14.118;2023-03-13T06:37:33;1.40;99.90
8332;DHT22;4203;48.144;14.118;2023-03-13T06:40:00;1.50;99.90
8332;DHT22;4203;48.144;14.118;2023-03-13T06:42:29;1.60;99.90
8332;DHT22;4203;48.144;14.118;2023-03-13T06:44:57;1.70;99.90
8332;DHT22;4203;48.144;14.118;2023-03-13T06:47:24;1.90;99.90
8332;DHT22;4203;48.144;14.118;2023-03-13T06:49:52;2.00;99.90
8332;DHT22;4203;48.144;14.118;2023-03-13T06:52:19;2.20;99.90
8332;DHT22;4203;48.144;14.118;2023-03-13T06:54:46;2.30;99.90
8332;DHT22;4203;48.144;14.118;2023-03-13T06:57:13;2.40;99.90
8332;DHT22;4203;48.144;14.118;2023-03-13T06:59:40;2.50;99.90
8332;DHT22;4203;48.144;14.118;2023-03-13T07:02:10;2.60;99.90
8332;DHT22;4203;48.144;14.118;2023-03-13T07:04:38;2.70;99.90
8332;DHT22;4203;48.144;14.118;2023-03-13T07:07:05;2.80;99.90
8332;DHT22;4203;48.144;14.118;2023-03-13T07:09:32;2.80;99.90
8332;DHT22;4203;48.144;14.118;2023-03-13T07:11:59;2.90;99.90
8332;DHT22;4203;48.144;14.118;2023-03-13T07:14:28;3.10;99.90
8332;DHT22;4203;48.144;14.118;2023-03-13T07:16:57;3.20;99.90
8332;DHT22;4203;48.144;14.118;2023-03-13T07:19:26;3.20;99.90
8332;DHT22;4203;48.144;14.118;2023-03-13T07:21:53;3.30;99.90
8332;DHT22;4203;48.144;14.118;2023-03-13T07:24:21;3.40;99.90
8332;DHT22;4203;48.144;14.118;2023-03-13T07:26:49;3.50;99.90
8332;DHT22;4203;48.144;14.118;2023-03-13T07:29:16;3.60;99.90
8332;DHT22;4203;48.144;14.118;2023-03-13T07:31:43;3.60;99.90
8332;DHT22;4203;48.144;14.118;2023-03-13T07:34:10;3.80;99.90
8332;DHT22;4203;48.144;14.118;2023-03-13T07:36:39;4.00;99.90
8332;DHT22;4203;48.144;14.118;2023-03-13T07:39:07;4.30;99.90
8332;DHT22;4203;48.144;14.118;2023-03-13T07:41:34;4.50;99.90
8332;DHT22;4203;48.144;14.118;2023-03-13T07:44:01;4.60;99.90
8332;DHT22;4203;48.144;14.118;2023-03-13T07:46:29;4.70;99.90
8332;DHT22;4203;48.144;14.118;2023-03-13T07:48:56;4.80;99.90
8332;DHT22;4203;48.144;14.118;2023-03-13T07:51:25;5.00;99.90
8332;DHT22;4203;48.144;14.118;2023-03-13T07:53:54;5.10;99.90
8332;DHT22;4203;48.144;14.118;2023-03-13T07:56:22;5.30;99.90
8332;DHT22;4203;48.144;14.118;2023-03-13T07:58:52;5.50;99.90
8332;DHT22;4203;48.144;14.118;2023-03-13T08:01:20;5.70;99.90
8332;DHT22;4203;48.144;14.118;2023-03-13T08:03:48;5.90;99.90
8332;DHT22;4203;48.144;14.118;2023-03-13T08:06:17;6.00;99.90
8332;DHT22;4203;48.144;14.118;2023-03-13T08:08:46;6.20;99.90
8332;DHT22;4203;48.144;14.118;2023-03-13T08:11:18;6.40;99.90
8332;DHT22;4203;48.144;14.118;2023-03-13T08:13:46;6.50;99.90
8332;DHT22;4203;48.144;14.118;2023-03-13T08:16:16;6.50;99.90
8332;DHT22;4203;48.144;14.118;2023-03-13T08:18:45;6.60;99.90
8332;DHT22;4203;48.144;14.118;2023-03-13T08:21:14;6.60;99.90
8332;DHT22;4203;48.144;14.118;2023-03-13T08:23:42;6.60;99.90
8332;DHT22;4203;48.144;14.118;2023-03-13T08:26:12;6.70;99.90
8332;DHT22;4203;48.144;14.118;2023-03-13T08:28:42;6.80;99.90
8332;DHT22;4203;48.144;14.118;2023-03-13T08:31:12;6.80;99.90
8332;DHT22;4203;48.144;14.118;2023-03-13T08:33:41;6.80;99.90
8332;DHT22;4203;48.144;14.118;2023-03-13T08:36:14;6.70;99.90
8332;DHT22;4203;48.144;14.118;2023-03-13T08:38:42;6.70;99.90
8332;DHT22;4203;48.144;14.118;2023-03-13T08:41:10;6.90;99.90
8332;DHT22;4203;48.144;14.118;2023-03-13T08:43:38;7.10;99.90
8332;DHT22;4203;48.144;14.118;2023-03-13T08:46:06;7.30;99.90
8332;DHT22;4203;48.144;14.118;2023-03-13T08:48:33;7.50;99.90
8332;DHT22;4203;48.144;14.118;2023-03-13T08:51:02;7.60;99.90
8332;DHT22;4203;48.144;14.118;2023-03-13T08:53:29;7.80;99.90
8332;DHT22;4203;48.144;14.118;2023-03-13T08:55:57;7.80;99.90
8332;DHT22;4203;48.144;14.118;2023-03-13T08:58:24;7.90;99.90
8332;DHT22;4203;48.144;14.118;2023-03-13T09:00:51;7.90;99.90
8332;DHT22;4203;48.144;14.118;2023-03-13T09:03:20;8.00;99.90
8332;DHT22;4203;48.144;14.118;2023-03-13T09:05:48;8.00;99.90
8332;DHT22;4203;48.144;14.118;2023-03-13T09:08:16;8.00;99.90
8332;DHT22;4203;48.144;14.118;2023-03-13T09:10:44;8.00;99.90
8332;DHT22;4203;48.144;14.118;2023-03-13T09:13:11;8.00;99.90
8332;DHT22;4203;48.144;14.118;2023-03-13T09:15:38;8.00;99.90
8332;DHT22;4203;48.144;14.118;2023-03-13T09:18:05;7.90;99.90
8332;DHT22;4203;48.144;14.118;2023-03-13T09:20:34;7.90;99.90
8332;DHT22;4203;48.144;14.118;2023-03-13T09:23:03;7.90;99.90
8332;DHT22;4203;48.144;14.118;2023-03-13T09:25:30;7.90;99.90
8332;DHT22;4203;48.144;14.118;2023-03-13T09:27:57;7.80;99.90
8332;DHT22;4203;48.144;14.118;2023-03-13T09:30:24;7.60;99.90
8332;DHT22;4203;48.144;14.118;2023-03-13T09:32:51;7.70;99.90
8332;DHT22;4203;48.144;14.118;2023-03-13T09:35:19;7.70;99.90
8332;DHT22;4203;48.144;14.118;2023-03-13T09:37:48;7.90;99.90
8332;DHT22;4203;48.144;14.118;2023-03-13T09:40:17;8.00;99.90
8332;DHT22;4203;48.144;14.118;2023-03-13T09:42:48;7.90;99.90
8332;DHT22;4203;48.144;14.118;2023-03-13T09:45:20;8.00;99.90
8332;DHT22;4203;48.144;14.118;2023-03-13T09:47:51;8.10;99.90
8332;DHT22;4203;48.144;14.118;2023-03-13T09:50:25;8.10;99.90
8332;DHT22;4203;48.144;14.118;2023-03-13T09:52:58;8.20;99.90
8332;DHT22;4203;48.144;14.118;2023-03-13T09:55:30;8.30;99.90
8332;DHT22;4203;48.144;14.118;2023-03-13T09:58:02;8.30;99.90
8332;DHT22;4203;48.144;14.118;2023-03-13T10:00:33;8.30;99.90
8332;DHT22;4203;48.144;14.118;2023-03-13T10:03:10;8.30;99.90
8332;DHT22;4203;48.144;14.118;2023-03-13T10:05:44;8.40;99.90
8332;DHT22;4203;48.144;14.118;2023-03-13T10:08:16;8.50;99.90
8332;DHT22;4203;48.144;14.118;2023-03-13T10:10:46;8.60;99.90
8332;DHT22;4203;48.144;14.118;2023-03-13T10:13:19;8.70;99.90
8332;DHT22;4203;48.144;14.118;2023-03-13T10:15:50;8.80;99.90
8332;DHT22;4203;48.144;14.118;2023-03-13T10:18:20;8.80;99.90
8332;DHT22;4203;48.144;14.118;2023-03-13T10:20:49;8.90;99.90
8332;DHT22;4203;48.144;14.118;2023-03-13T10:23:26;8.90;99.90
8332;DHT22;4203;48.144;14.118;2023-03-13T10:25:58;8.90;99.90
8332;DHT22;4203;48.144;14.118;2023-03-13T10:28:25;8.80;99.90
8332;DHT22;4203;48.144;14.118;2023-03-13T10:30:58;8.70;99.90
8332;DHT22;4203;48.144;14.118;2023-03-13T10:33:28;8.60;99.90
8332;DHT22;4203;48.144;14.118;2023-03-13T10:36:01;8.70;99.90
8332;DHT22;4203;48.144;14.118;2023-03-13T10:38:44;8.80;99.90
8332;DHT22;4203;48.144;14.118;2023-03-13T10:41:24;8.80;99.90
8332;DHT22;4203;48.144;14.118;2023-03-13T10:43:53;9.00;99.90
8332;DHT22;4203;48.144;14.118;2023-03-13T10:46:26;9.10;99.90
8332;DHT22;4203;48.144;14.118;2023-03-13T10:48:55;9.30;99.90
8332;DHT22;4203;48.144;14.118;2023-03-13T10:51:24;9.40;99.90
8332;DHT22;4203;48.144;14.118;2023-03-13T10:53:59;9.40;99.90
8332;DHT22;4203;48.144;14.118;2023-03-13T10:56:28;9.50;99.90
8332;DHT22;4203;48.144;14.118;2023-03-13T10:58:56;9.60;99.90
8332;DHT22;4203;48.144;14.118;2023-03-13T11:01:25;9.60;99.90
8332;DHT22;4203;48.144;14.118;2023-03-13T11:03:55;9.50;99.90
8332;DHT22;4203;48.144;14.118;2023-03-13T11:06:28;9.40;99.90
8332;DHT22;4203;48.144;14.118;2023-03-13T11:09:09;9.50;99.90
8332;DHT22;4203;48.144;14.118;2023-03-13T11:11:46;9.30;99.90
8332;DHT22;4203;48.144;14.118;2023-03-13T11:14:16;9.30;99.90
8332;DHT22;4203;48.144;14.118;2023-03-13T11:16:48;9.60;99.90
8332;DHT22;4203;48.144;14.118;2023-03-13T11:19:27;9.70;99.90
8332;DHT22;4203;48.144;14.118;2023-03-13T11:22:04;9.90;99.90
8332;DHT22;4203;48.144;14.118;2023-03-13T11:24:41;10.00;99.90
8332;DHT22;4203;48.144;14.118;2023-03-13T11:27:17;10.20;99.90
8332;DHT22;4203;48.144;14.118;2023-03-13T11:29:55;10.30;99.90
8332;DHT22;4203;48.144;14.118;2023-03-13T11:32:32;10.60;99.90
8332;DHT22;4203;48.144;14.118;2023-03-13T11:35:09;10.90;99.90
8332;DHT22;4203;48.144;14.118;2023-03-13T11:37:43;11.30;99.90
8332;DHT22;4203;48.144;14.118;2023-03-13T11:40:20;11.50;99.90
8332;DHT22;4203;48.144;14.118;2023-03-13T11:43:12;11.70;99.90
8332;DHT22;4203;48.144;14.118;2023-03-13T11:45:53;12.10;99.90
8332;DHT22;4203;48.144;14.118;2023-03-13T11:48:55;12.60;99.90
8332;DHT22;4203;48.144;14.118;2023-03-13T11:51:33;13.40;99.90
8332;DHT22;4203;48.144;14.118;2023-03-13T11:54:26;14.10;99.90
8332;DHT22;4203;48.144;14.118;2023-03-13T11:57:10;14.60;99.90
8332;DHT22;4203;48.144;14.118;2023-03-13T11:59:45;15.20;99.90
8332;DHT22;4203;48.144;14.118;2023-03-13T12:02:20;15.80;99.90
8332;DHT22;4203;48.144;14.118;2023-03-13T12:04:53;16.40;99.90
8332;DHT22;4203;48.144;14.118;2023-03-13T12:07:26;16.80;99.90
8332;DHT22;4203;48.144;14.118;2023-03-13T12:09:58;17.30;99.90
8332;DHT22;4203;48.144;14.118;2023-03-13T12:12:46;17.60;99.90
8332;DHT22;4203;48.144;14.118;2023-03-13T12:15:20;17.90;99.90
8332;DHT22;4203;48.144;14.118;2023-03-13T12:17:50;17.90;99.90
8332;DHT22;4203;48.144;14.118;2023-03-13T12:20:24;18.10;99.90
8332;DHT22;4203;48.144;14.118;2023-03-13T12:22:59;18.30;99.90
8332;DHT22;4203;48.144;14.118;2023-03-13T12:25:33;18.20;99.90
8332;DHT22;4203;48.144;14.118;2023-03-13T12:28:15;18.00;99.90
8332;DHT22;4203;48.144;14.118;2023-03-13T12:30:51;17.80;99.90
8332;DHT22;4203;48.144;14.118;2023-03-13T12:33:24;17.50;99.90
8332;DHT22;4203;48.144;14.118;2023-03-13T12:36:05;17.10;99.90
8332;DHT22;4203;48.144;14.118;2023-03-13T12:38:39;16.80;99.90
8332;DHT22;4203;48.144;14.118;2023-03-13T12:41:29;16.50;99.90
8332;DHT22;4203;48.144;14.118;2023-03-13T12:44:00;16.20;99.90
8332;DHT22;4203;48.144;14.118;2023-03-13T12:46:38;16.00;99.90
8332;DHT22;4203;48.144;14.118;2023-03-13T12:49:35;15.80;99.90
8332;DHT22;4203;48.144;14.118;2023-03-13T12:55:45;15.60;99.90
8332;DHT22;4203;48.144;14.118;2023-03-13T12:58:36;15.80;99.90
8332;DHT22;4203;48.144;14.118;2023-03-13T13:01:06;16.10;99.90
8332;DHT22;4203;48.144;14.118;2023-03-13T13:03:36;16.50;99.90
8332;DHT22;4203;48.144;14.118;2023-03-13T13:06:07;16.90;99.90
8332;DHT22;4203;48.144;14.118;2023-03-13T13:08:40;17.00;99.90
8332;DHT22;4203;48.144;14.118;2023-03-13T13:17:31;17.90;99.90
8332;DHT22;4203;48.144;14.118;2023-03-13T13:20:28;18.10;99.90
8332;DHT22;4203;48.144;14.118;2023-03-13T13:23:14;18.40;99.90
8332;DHT22;4203;48.144;14.118;2023-03-13T13:25:45;19.00;99.90
8332;DHT22;4203;48.144;14.118;2023-03-13T13:28:32;19.40;99.90
8332;DHT22;4203;48.144;14.118;2023-03-13T13:31:00;19.80;99.90
8332;DHT22;4203;48.144;14.118;2023-03-13T13:33:38;20.30;99.90
8332;DHT22;4203;48.144;14.118;2023-03-13T13:36:29;20.90;99.90
8332;DHT22;4203;48.144;14.118;2023-03-13T13:38:57;21.30;99.90
8332;DHT22;4203;48.144;14.118;2023-03-13T13:41:33;21.60;99.90
8332;DHT22;4203;48.144;14.118;2023-03-13T13:44:20;21.10;99.90
8332;DHT22;4203;48.144;14.118;2023-03-13T13:46:48;20.80;99.90
8332;DHT22;4203;48.144;14.118;2023-03-13T13:49:18;20.50;99.90
8332;DHT22;4203;48.144;14.118;2023-03-13T13:52:16;20.30;99.90
8332;DHT22;4203;48.144;14.118;2023-03-13T13:54:54;20.30;99.90
8332;DHT22;4203;48.144;14.118;2023-03-13T13:57:24;20.30;99.90
8332;DHT22;4203;48.144;14.118;2023-03-13T13:59:56;20.50;99.90
8332;DHT22;4203;48.144;14.118;2023-03-13T14:02:31;20.90;99.90
8332;DHT22;4203;48.144;14.118;2023-03-13T14:05:19;21.30;99.90
8332;DHT22;4203;48.144;14.118;2023-03-13T14:07:54;21.20;99.90
8332;DHT22;4203;48.144;14.118;2023-03-13T14:10:34;20.70;99.90
8332;DHT22;4203;48.144;14.118;2023-03-13T14:13:10;20.10;99.90
8332;DHT22;4203;48.144;14.118;2023-03-13T14:15:41;19.80;99.90
8332;DHT22;4203;48.144;14.118;2023-03-13T14:18:11;19.50;99.90
8332;DHT22;4203;48.144;14.118;2023-03-13T14:20:54;19.10;99.90
8332;DHT22;4203;48.144;14.118;2023-03-13T14:23:34;18.80;99.90
8332;DHT22;4203;48.144;14.118;2023-03-13T14:26:15;18.50;99.90
8332;DHT22;4203;48.144;14.118;2023-03-13T14:28:45;18.20;99.90
8332;DHT22;4203;48.144;14.118;2023-03-13T14:31:24;17.90;99.90
8332;DHT22;4203;48.144;14.118;2023-03-13T14:33:52;17.60;99.90
8332;DHT22;4203;48.144;14.118;2023-03-13T14:36:21;17.30;99.90
8332;DHT22;4203;48.144;14.118;2023-03-13T14:38:52;17.30;99.90
8332;DHT22;4203;48.144;14.118;2023-03-13T14:41:28;17.40;99.90
8332;DHT22;4203;48.144;14.118;2023-03-13T14:44:02;17.30;99.90
8332;DHT22;4203;48.144;14.118;2023-03-13T14:46:31;17.20;99.90
8332;DHT22;4203;48.144;14.118;2023-03-13T14:49:06;17.20;99.90
8332;DHT22;4203;48.144;14.118;2023-03-13T14:51:38;17.20;99.90
8332;DHT22;4203;48.144;14.118;2023-03-13T14:54:23;17.00;99.90
8332;DHT22;4203;48.144;14.118;2023-03-13T14:57:01;16.90;99.90
8332;DHT22;4203;48.144;14.118;2023-03-13T14:59:29;16.60;99.90
8332;DHT22;4203;48.144;14.118;2023-03-13T15:01:59;16.40;99.90
8332;DHT22;4203;48.144;14.118;2023-03-13T15:04:49;16.20;99.90
8332;DHT22;4203;48.144;14.118;2023-03-13T15:07:18;16.10;99.90
8332;DHT22;4203;48.144;14.118;2023-03-13T15:09:46;15.80;99.90
8332;DHT22;4203;48.144;14.118;2023-03-13T15:12:16;15.80;99.90
8332;DHT22;4203;48.144;14.118;2023-03-13T15:14:49;15.80;99.90
8332;DHT22;4203;48.144;14.118;2023-03-13T15:17:19;15.90;99.90
8332;DHT22;4203;48.144;14.118;2023-03-13T15:19:51;15.90;99.90
8332;DHT22;4203;48.144;14.118;2023-03-13T15:22:24;15.80;99.90
8332;DHT22;4203;48.144;14.118;2023-03-13T15:24:52;15.60;99.90
8332;DHT22;4203;48.144;14.118;2023-03-13T15:27:23;15.40;99.90
8332;DHT22;4203;48.144;14.118;2023-03-13T15:29:51;15.20;99.90
8332;DHT22;4203;48.144;14.118;2023-03-13T15:32:24;15.20;99.90
8332;DHT22;4203;48.144;14.118;2023-03-13T15:34:52;15.10;99.90
8332;DHT22;4203;48.144;14.118;2023-03-13T15:37:26;15.00;99.90
8332;DHT22;4203;48.144;14.118;2023-03-13T15:39:54;15.00;99.90
8332;DHT22;4203;48.144;14.118;2023-03-13T15:42:32;14.90;99.90
8332;DHT22;4203;48.144;14.118;2023-03-13T15:45:00;14.80;99.90
8332;DHT22;4203;48.144;14.118;2023-03-13T15:47:27;14.70;99.90
8332;DHT22;4203;48.144;14.118;2023-03-13T15:49:55;14.70;99.90
8332;DHT22;4203;48.144;14.118;2023-03-13T15:52:24;14.60;99.90
8332;DHT22;4203;48.144;14.118;2023-03-13T15:54:52;14.40;99.90
8332;DHT22;4203;48.144;14.118;2023-03-13T15:57:21;14.30;99.90
8332;DHT22;4203;48.144;14.118;2023-03-13T15:59:50;14.10;99.90
8332;DHT22;4203;48.144;14.118;2023-03-13T16:02:23;14.10;99.90
8332;DHT22;4203;48.144;14.118;2023-03-13T16:04:57;14.00;99.90
8332;DHT22;4203;48.144;14.118;2023-03-13T16:07:29;14.00;99.90
8332;DHT22;4203;48.144;14.118;2023-03-13T16:09:57;13.80;99.90
8332;DHT22;4203;48.144;14.118;2023-03-13T16:12:24;13.60;99.90
8332;DHT22;4203;48.144;14.118;2023-03-13T16:14:51;13.50;99.90
8332;DHT22;4203;48.144;14.118;2023-03-13T16:17:19;13.40;99.90
8332;DHT22;4203;48.144;14.118;2023-03-13T16:19:52;13.30;99.90
8332;DHT22;4203;48.144;14.118;2023-03-13T16:22:20;13.20;99.90
8332;DHT22;4203;48.144;14.118;2023-03-13T16:24:49;13.10;99.90
8332;DHT22;4203;48.144;14.118;2023-03-13T16:27:21;13.00;99.90